Time,TemperatureF,DewpointF,PressureIn,WindDirection,WindDirectionDegrees,WindSpeedMPH,WindSpeedGustMPH,Humidity,HourlyPrecipIn,Conditions,Clouds,dailyrainin,SoftwareType,DateUTC
2013-03-02 00:02:00,40.0,21.0,30.66,ENE,59,0.0,5.0,47,0.00,,,0.00,weatherlink.com 1.10,2013-03-02 07:02:00,
2013-03-02 00:17:00,40.8,21.0,30.66,North,349,3.0,7.0,46,0.00,,,0.00,weatherlink.com 1.10,2013-03-02 07:17:00,
2013-03-02 00:32:00,40.6,22.0,30.67,NW,326,0.0,4.0,47,0.00,,,0.00,weatherlink.com 1.10,2013-03-02 07:32:00,
2013-03-02 00:47:00,38.8,21.0,30.67,NNW,331,1.0,5.0,50,0.00,,,0.00,weatherlink.com 1.10,2013-03-02 07:47:00,
2013-03-02 01:02:00,39.6,21.0,30.67,North,359,0.0,5.0,47,0.00,,,0.00,weatherlink.com 1.10,2013-03-02 08:02:00,
2013-03-02 01:17:00,39.1,22.0,30.67,East,79,0.0,7.0,50,0.00,,,0.00,weatherlink.com 1.10,2013-03-02 08:17:00,
2013-03-02 01:33:00,39.3,21.0,30.67,NNE,31,0.0,7.0,49,0.00,,,0.00,weatherlink.com 1.10,2013-03-02 08:33:00,
2013-03-02 01:47:00,40.4,21.0,30.66,NE,41,4.0,6.0,47,0.00,,,0.00,weatherlink.com 1.10,2013-03-02 08:47:00,
2013-03-02 02:03:00,42.1,21.0,30.67,North,11,2.0,12.0,44,0.00,,,0.00,weatherlink.com 1.10,2013-03-02 09:03:00,
2013-03-02 02:18:00,40.9,21.0,30.66,NNE,23,3.0,8.0,46,0.00,,,0.00,weatherlink.com 1.10,2013-03-02 09:18:00,
2013-03-02 02:33:00,40.0,22.0,30.66,NNE,16,2.0,9.0,48,0.00,,,0.00,weatherlink.com 1.10,2013-03-02 09:33:00,
2013-03-02 02:48:00,38.7,21.0,30.66,NE,49,0.0,5.0,50,0.00,,,0.00,weatherlink.com 1.10,2013-03-02 09:48:00,
2013-03-02 03:03:00,40.1,22.0,30.65,NNE,30,2.0,7.0,49,0.00,,,0.00,weatherlink.com 1.10,2013-03-02 10:03:00,
2013-03-02 03:18:00,40.9,21.0,30.64,NNE,24,1.0,7.0,46,0.00,,,0.00,weatherlink.com 1.10,2013-03-02 10:18:00,
2013-03-02 03:33:00,40.6,21.0,30.64,NNE,18,0.0,3.0,46,0.00,,,0.00,weatherlink.com 1.10,2013-03-02 10:33:00,
2013-03-02 03:48:00,40.5,22.0,30.63,NNW,335,0.0,3.0,47,0.00,,,0.00,weatherlink.com 1.10,2013-03-02 10:48:00,
2013-03-02 04:03:00,39.8,21.0,30.63,East,95,0.0,5.0,48,0.00,,,0.00,weatherlink.com 1.10,2013-03-02 11:03:00,
2013-03-02 04:18:00,39.8,21.0,30.62,North,360,0.0,2.0,48,0.00,,,0.00,weatherlink.com 1.10,2013-03-02 11:18:00,
2013-03-02 04:33:00,39.5,22.0,30.62,NNE,25,0.0,2.0,49,0.00,,,0.00,weatherlink.com 1.10,2013-03-02 11:33:00,
2013-03-02 04:48:00,38.6,22.0,30.63,NW,326,0.0,1.0,51,0.00,,,0.00,weatherlink.com 1.10,2013-03-02 11:48:00,
2013-03-02 05:03:00,36.3,21.0,30.64,NW,326,0.0,2.0,55,0.00,,,0.00,weatherlink.com 1.10,2013-03-02 12:03:00,
2013-03-02 05:18:00,35.7,21.0,30.64,NW,326,0.0,2.0,55,0.00,,,0.00,weatherlink.com 1.10,2013-03-02 12:18:00,
2013-03-02 05:33:00,35.7,22.0,30.64,NE,36,1.0,3.0,57,0.00,,,0.00,weatherlink.com 1.10,2013-03-02 12:33:00,
2013-03-02 05:48:00,36.0,22.0,30.64,North,6,0.0,3.0,57,0.00,,,0.00,weatherlink.com 1.10,2013-03-02 12:48:00,
2013-03-02 06:03:00,34.3,22.0,30.64,North,6,0.0,2.0,61,0.00,,,0.00,weatherlink.com 1.10,2013-03-02 13:03:00,
2013-03-02 06:18:00,33.7,22.0,30.64,North,6,1.0,1.0,62,0.00,,,0.00,weatherlink.com 1.10,2013-03-02 13:18:00,
2013-03-02 06:33:00,34.2,23.0,30.64,North,6,0.0,3.0,63,0.00,,,0.00,weatherlink.com 1.10,2013-03-02 13:33:00,
2013-03-02 06:48:00,35.7,23.0,30.64,North,360,0.0,1.0,60,0.00,,,0.00,weatherlink.com 1.10,2013-03-02 13:48:00,
2013-03-02 07:03:00,34.7,23.0,30.64,ENE,63,1.0,2.0,62,0.00,,,0.00,weatherlink.com 1.10,2013-03-02 14:03:00,
2013-03-02 07:18:00,35.3,23.0,30.64,NE,39,0.0,2.0,60,0.00,,,0.00,weatherlink.com 1.10,2013-03-02 14:18:00,
2013-03-02 07:33:00,36.8,23.0,30.64,East,84,0.0,3.0,58,0.00,,,0.00,weatherlink.com 1.10,2013-03-02 14:33:00,
2013-03-02 07:48:00,39.5,23.0,30.64,NNE,19,1.0,5.0,53,0.00,,,0.00,weatherlink.com 1.10,2013-03-02 14:48:00,
2013-03-02 08:03:00,41.5,24.0,30.64,ENE,63,3.0,4.0,50,0.00,,,0.00,weatherlink.com 1.10,2013-03-02 15:03:00,
2013-03-02 08:18:00,43.9,24.0,30.64,NW,310,1.0,6.0,46,0.00,,,0.00,weatherlink.com 1.10,2013-03-02 15:18:00,
2013-03-02 08:33:00,46.0,24.0,30.64,NE,42,2.0,6.0,43,0.00,,,0.00,weatherlink.com 1.10,2013-03-02 15:33:00,
2013-03-02 08:48:00,47.3,24.0,30.63,NNW,347,4.0,10.0,41,0.00,,,0.00,weatherlink.com 1.10,2013-03-02 15:48:00,
2013-03-02 09:03:00,48.4,24.0,30.63,NNE,33,7.0,9.0,39,0.00,,,0.00,weatherlink.com 1.10,2013-03-02 16:03:00,
2013-03-02 09:18:00,49.3,24.0,30.63,NNE,15,3.0,10.0,37,0.00,,,0.00,weatherlink.com 1.10,2013-03-02 16:18:00,
2013-03-02 09:33:00,50.3,24.0,30.63,ENE,59,3.0,9.0,36,0.00,,,0.00,weatherlink.com 1.10,2013-03-02 16:33:00,
2013-03-02 09:48:00,51.0,24.0,30.62,North,1,1.0,8.0,35,0.00,,,0.00,weatherlink.com 1.10,2013-03-02 16:48:00,
2013-03-02 10:03:00,51.7,23.0,30.62,NE,39,2.0,10.0,33,0.00,,,0.00,weatherlink.com 1.10,2013-03-02 17:03:00,
2013-03-02 10:18:00,53.1,24.0,30.62,NNW,342,1.0,5.0,32,0.00,,,0.00,weatherlink.com 1.10,2013-03-02 17:18:00,
2013-03-02 10:33:00,53.1,25.0,30.61,North,8,1.0,7.0,34,0.00,,,0.00,weatherlink.com 1.10,2013-03-02 17:33:00,
2013-03-02 10:48:00,53.6,24.0,30.61,NNW,340,1.0,8.0,32,0.00,,,0.00,weatherlink.com 1.10,2013-03-02 17:48:00,
2013-03-02 11:18:00,54.8,25.0,30.60,NE,44,1.0,5.0,32,0.00,,,0.00,weatherlink.com 1.10,2013-03-02 18:18:00,
2013-03-02 11:33:00,55.8,24.0,30.60,WNW,302,1.0,5.0,29,0.00,,,0.00,weatherlink.com 1.10,2013-03-02 18:33:00,
2013-03-02 11:48:00,56.6,24.0,30.59,WNW,297,1.0,5.0,28,0.00,,,0.00,weatherlink.com 1.10,2013-03-02 18:48:00,
2013-03-02 12:04:00,58.3,22.0,30.59,NE,36,5.0,7.0,25,0.00,,,0.00,weatherlink.com 1.10,2013-03-02 19:04:00,
2013-03-02 12:18:00,59.0,22.0,30.58,NE,50,2.0,5.0,24,0.00,,,0.00,weatherlink.com 1.10,2013-03-02 19:18:00,
2013-03-02 12:34:00,59.4,20.0,30.57,SE,142,0.0,5.0,22,0.00,,,0.00,weatherlink.com 1.10,2013-03-02 19:34:00,
2013-03-02 12:49:00,59.9,21.0,30.56,East,89,1.0,6.0,22,0.00,,,0.00,weatherlink.com 1.10,2013-03-02 19:49:00,
2013-03-02 13:04:00,60.5,20.0,30.55,ESE,110,3.0,5.0,21,0.00,,,0.00,weatherlink.com 1.10,2013-03-02 20:04:00,
2013-03-02 13:19:00,61.1,18.0,30.53,West,265,2.0,4.0,19,0.00,,,0.00,weatherlink.com 1.10,2013-03-02 20:19:00,
2013-03-02 13:34:00,61.9,20.0,30.52,East,89,3.0,4.0,20,0.00,,,0.00,weatherlink.com 1.10,2013-03-02 20:34:00,
2013-03-02 13:49:00,62.8,20.0,30.51,ESE,115,4.0,5.0,19,0.00,,,0.00,weatherlink.com 1.10,2013-03-02 20:49:00,
2013-03-02 14:04:00,63.5,27.0,30.51,West,261,2.0,6.0,25,0.00,,,0.00,weatherlink.com 1.10,2013-03-02 21:04:00,
2013-03-02 14:34:00,62.1,28.0,30.50,SW,220,4.0,8.0,28,0.00,,,0.00,weatherlink.com 1.10,2013-03-02 21:34:00,
2013-03-02 14:49:00,61.8,26.0,30.49,WSW,239,1.0,5.0,26,0.00,,,0.00,weatherlink.com 1.10,2013-03-02 21:49:00,
2013-03-02 15:04:00,62.5,23.0,30.48,SW,236,2.0,6.0,22,0.00,,,0.00,weatherlink.com 1.10,2013-03-02 22:04:00,
2013-03-02 15:19:00,62.9,23.0,30.48,SW,225,1.0,6.0,22,0.00,,,0.00,weatherlink.com 1.10,2013-03-02 22:19:00,
2013-03-02 15:34:00,63.5,20.0,30.48,SW,220,0.0,4.0,19,0.00,,,0.00,weatherlink.com 1.10,2013-03-02 22:34:00,
2013-03-02 15:49:00,63.8,17.0,30.48,SW,229,2.0,6.0,16,0.00,,,0.00,weatherlink.com 1.10,2013-03-02 22:49:00,
2013-03-02 16:04:00,63.3,18.0,30.47,West,274,1.0,6.0,17,0.00,,,0.00,weatherlink.com 1.10,2013-03-02 23:04:00,
2013-03-02 16:19:00,61.8,16.0,30.47,SW,236,1.0,4.0,17,0.00,,,0.00,weatherlink.com 1.10,2013-03-02 23:19:00,
2013-03-02 16:34:00,60.9,17.0,30.46,SSW,203,5.0,5.0,18,0.00,,,0.00,weatherlink.com 1.10,2013-03-02 23:34:00,
2013-03-02 16:49:00,60.2,19.0,30.46,SW,220,0.0,3.0,20,0.00,,,0.00,weatherlink.com 1.10,2013-03-02 23:49:00,
2013-03-02 17:04:00,59.3,20.0,30.46,SW,220,0.0,3.0,22,0.00,,,0.00,weatherlink.com 1.10,2013-03-03 00:04:00,
2013-03-02 17:19:00,58.9,20.0,30.45,SW,220,0.0,2.0,22,0.00,,,0.00,weatherlink.com 1.10,2013-03-03 00:19:00,
2013-03-02 17:34:00,58.4,21.0,30.44,SW,220,0.0,2.0,23,0.00,,,0.00,weatherlink.com 1.10,2013-03-03 00:34:00,
2013-03-02 17:49:00,57.8,21.0,30.44,SW,220,0.0,1.0,24,0.00,,,0.00,weatherlink.com 1.10,2013-03-03 00:49:00,
2013-03-02 18:04:00,57.2,23.0,30.44,SW,220,0.0,0.0,27,0.00,,,0.00,weatherlink.com 1.10,2013-03-03 01:04:00,
2013-03-02 18:19:00,55.2,23.0,30.43,SW,220,0.0,0.0,29,0.00,,,0.00,weatherlink.com 1.10,2013-03-03 01:19:00,
2013-03-02 18:35:00,52.6,27.0,30.43,SW,220,0.0,0.0,37,0.00,,,0.00,weatherlink.com 1.10,2013-03-03 01:35:00,
2013-03-02 18:50:00,48.1,29.0,30.43,SW,220,0.0,2.0,47,0.00,,,0.00,weatherlink.com 1.10,2013-03-03 01:50:00,
2013-03-02 19:05:00,44.8,27.0,30.44,SW,220,1.0,2.0,49,0.00,,,0.00,weatherlink.com 1.10,2013-03-03 02:05:00,
2013-03-02 19:20:00,42.1,25.0,30.44,SW,220,0.0,2.0,50,0.00,,,0.00,weatherlink.com 1.10,2013-03-03 02:20:00,
2013-03-02 19:35:00,40.6,25.0,30.44,SW,220,0.0,1.0,55,0.00,,,0.00,weatherlink.com 1.10,2013-03-03 02:35:00,
2013-03-02 19:50:00,38.6,26.0,30.44,SW,220,0.0,3.0,60,0.00,,,0.00,weatherlink.com 1.10,2013-03-03 02:50:00,
2013-03-02 20:05:00,37.0,25.0,30.44,SW,220,0.0,2.0,63,0.00,,,0.00,weatherlink.com 1.10,2013-03-03 03:05:00,
2013-03-02 20:20:00,36.0,24.0,30.44,SW,220,0.0,1.0,63,0.00,,,0.00,weatherlink.com 1.10,2013-03-03 03:20:00,
2013-03-02 20:35:00,35.3,24.0,30.44,SW,220,0.0,2.0,64,0.00,,,0.00,weatherlink.com 1.10,2013-03-03 03:35:00,
2013-03-02 20:50:00,34.7,24.0,30.44,SW,220,2.0,2.0,66,0.00,,,0.00,weatherlink.com 1.10,2013-03-03 03:50:00,
2013-03-02 21:05:00,34.0,24.0,30.44,SW,220,0.0,2.0,68,0.00,,,0.00,weatherlink.com 1.10,2013-03-03 04:05:00,
2013-03-02 21:20:00,33.4,25.0,30.45,SW,220,0.0,1.0,71,0.00,,,0.00,weatherlink.com 1.10,2013-03-03 04:20:00,
2013-03-02 21:35:00,32.8,25.0,30.45,SW,220,0.0,3.0,72,0.00,,,0.00,weatherlink.com 1.10,2013-03-03 04:35:00,
2013-03-02 21:50:00,32.3,24.0,30.45,SW,220,0.0,3.0,72,0.00,,,0.00,weatherlink.com 1.10,2013-03-03 04:50:00,
2013-03-02 22:05:00,31.9,24.0,30.45,SW,220,0.0,2.0,73,0.00,,,0.00,weatherlink.com 1.10,2013-03-03 05:05:00,
2013-03-02 22:20:00,31.6,24.0,30.44,SW,220,2.0,2.0,74,0.00,,,0.00,weatherlink.com 1.10,2013-03-03 05:20:00,
2013-03-02 22:35:00,31.2,24.0,30.44,SW,220,0.0,2.0,76,0.00,,,0.00,weatherlink.com 1.10,2013-03-03 05:35:00,
2013-03-02 22:50:00,30.6,24.0,30.44,SW,220,2.0,2.0,76,0.00,,,0.00,weatherlink.com 1.10,2013-03-03 05:50:00,
2013-03-02 23:05:00,30.2,24.0,30.44,SW,220,1.0,2.0,77,0.00,,,0.00,weatherlink.com 1.10,2013-03-03 06:05:00,
2013-03-02 23:20:00,29.7,24.0,30.44,SW,220,1.0,2.0,78,0.00,,,0.00,weatherlink.com 1.10,2013-03-03 06:20:00,
2013-03-02 23:35:00,29.6,24.0,30.43,SW,220,0.0,2.0,78,0.00,,,0.00,weatherlink.com 1.10,2013-03-03 06:35:00,
2013-03-02 23:51:00,29.6,24.0,30.43,SW,220,0.0,2.0,79,0.00,,,0.00,weatherlink.com 1.10,2013-03-03 06:51:00,